TimeCST,TemperatureF,Dew PointF,Humidity,Sea Level PressureIn,VisibilityMPH,Wind Direction,Wind SpeedMPH,Gust SpeedMPH,PrecipitationIn,Events,Conditions,WindDirDegrees,DateUTC
12:14 AM,-0.4,-7.6,72,29.48,10.0,NNW,17.3,27.6,N/A,,Scattered Clouds,330,2013-01-31 06:14:00
12:34 AM,-0.4,-7.6,72,29.48,10.0,NNW,19.6,25.3,N/A,,Scattered Clouds,330,2013-01-31 06:34:00
12:54 AM,-0.4,-7.6,72,29.48,10.0,NNW,18.4,27.6,N/A,,Mostly Cloudy,330,2013-01-31 06:54:00
1:13 AM,-0.4,-7.6,72,29.49,10.0,NNW,15.0,23.0,N/A,,Mostly Cloudy,330,2013-01-31 07:13:00
1:33 AM,-0.4,-7.6,72,29.50,10.0,NNW,17.3,24.2,N/A,,Mostly Cloudy,330,2013-01-31 07:33:00
1:54 AM,-0.4,-7.6,72,29.51,10.0,NW,13.8,23.0,N/A,,Mostly Cloudy,320,2013-01-31 07:54:00
2:14 AM,-0.4,-7.6,72,29.52,10.0,NW,8.1,18.4,N/A,,Overcast,320,2013-01-31 08:14:00
2:33 AM,-0.4,-7.6,72,29.52,7.0,NW,10.4,18.4,N/A,,Overcast,310,2013-01-31 08:33:00
2:48 AM,-0.4,-7.6,72,29.52,7.0,NW,13.8,20.7,N/A,,Overcast,310,2013-01-31 08:48:00
3:14 AM,-2.2,-7.6,78,29.52,4.0,NW,10.4,17.3,N/A,Snow,Light Snow,310,2013-01-31 09:14:00
3:34 AM,-2.2,-7.6,78,29.52,3.0,NW,10.4,17.3,N/A,Snow,Light Snow,310,2013-01-31 09:34:00
3:53 AM,-2.2,-9.4,71,29.53,4.0,NW,12.7,19.6,N/A,Snow,Light Snow,320,2013-01-31 09:53:00
4:14 AM,-2.2,-9.4,71,29.53,3.0,NW,10.4,23.0,N/A,Snow,Light Snow,310,2013-01-31 10:14:00
4:33 AM,-2.2,-9.4,71,29.53,5.0,NW,12.7,20.7,N/A,Snow,Light Snow,310,2013-01-31 10:33:00
4:54 AM,-2.2,-9.4,71,29.54,4.0,NW,13.8,19.6,N/A,Snow,Light Snow,310,2013-01-31 10:54:00
5:14 AM,-2.2,-11.2,66,29.54,5.0,NW,16.1,24.2,N/A,Snow,Light Snow,320,2013-01-31 11:14:00
5:33 AM,-2.2,-11.2,66,29.54,4.0,NW,15.0,21.9,N/A,Snow,Light Snow,320,2013-01-31 11:33:00
5:54 AM,-4.0,-11.2,71,29.55,5.0,NW,15.0,21.9,N/A,Snow,Light Snow,320,2013-01-31 11:54:00
6:13 AM,-4.0,-11.2,71,29.56,4.0,NW,10.4,20.7,N/A,Snow,Light Snow,320,2013-01-31 12:13:00
6:34 AM,-5.8,-11.2,77,29.57,5.0,NW,15.0,20.7,N/A,Snow,Light Snow,310,2013-01-31 12:34:00
6:53 AM,-5.8,-14.8,65,29.57,4.0,NW,16.1,27.6,N/A,Snow,Light Snow,320,2013-01-31 12:53:00
7:14 AM,-5.8,-14.8,65,29.58,5.0,NW,15.0,24.2,N/A,Snow,Light Snow,320,2013-01-31 13:14:00
7:33 AM,-5.8,-14.8,65,29.59,7.0,NW,15.0,26.5,N/A,,Scattered Clouds,310,2013-01-31 13:33:00
7:53 AM,-7.6,-14.8,71,29.60,7.0,NW,15.0,25.3,N/A,,Clear,320,2013-01-31 13:53:00
8:14 AM,-7.6,-14.8,71,29.60,7.0,NW,19.6,26.5,N/A,,Clear,320,2013-01-31 14:14:00
8:33 AM,-5.8,-14.8,65,29.61,10.0,NW,16.1,24.2,N/A,,Clear,320,2013-01-31 14:33:00
8:54 AM,-5.8,-14.8,65,29.62,10.0,NW,16.1,25.3,N/A,,Clear,320,2013-01-31 14:54:00
9:19 AM,-5.8,-14.8,65,29.63,10.0,NW,15.0,25.3,N/A,,Clear,310,2013-01-31 15:19:00
9:33 AM,-5.8,-14.8,65,29.63,7.0,NW,17.3,26.5,N/A,,Clear,310,2013-01-31 15:33:00
9:54 AM,-5.8,-14.8,65,29.64,7.0,NNW,12.7,27.6,N/A,,Clear,330,2013-01-31 15:54:00
10:14 AM,-4.0,-14.8,60,29.65,7.0,NNW,18.4,28.8,N/A,,Clear,330,2013-01-31 16:14:00
10:33 AM,-4.0,-14.8,60,29.66,10.0,NW,18.4,28.8,N/A,,Clear,320,2013-01-31 16:33:00
10:58 AM,-2.2,-13.0,60,29.67,10.0,NNW,17.3,25.3,N/A,,Clear,330,2013-01-31 16:58:00
11:14 AM,-0.4,-11.2,60,29.68,10.0,NW,16.1,26.5,N/A,,Clear,310,2013-01-31 17:14:00
11:34 AM,-0.4,-11.2,60,29.68,10.0,NW,16.1,24.2,N/A,,Clear,310,2013-01-31 17:34:00
12:13 PM,-0.4,-11.2,60,29.68,10.0,NW,11.5,25.3,N/A,,Clear,310,2013-01-31 18:13:00
12:33 PM,-0.4,-11.2,60,29.69,10.0,NW,15.0,21.9,N/A,,Clear,310,2013-01-31 18:33:00
12:54 PM,1.4,-11.2,56,29.70,10.0,NW,11.5,20.7,N/A,,Clear,310,2013-01-31 18:54:00
1:14 PM,1.4,-11.2,56,29.70,10.0,WNW,12.7,20.7,N/A,,Clear,300,2013-01-31 19:14:00
1:33 PM,-0.4,-11.2,60,29.71,10.0,NW,16.1,29.9,N/A,,Clear,320,2013-01-31 19:33:00
1:54 PM,-0.4,-11.2,60,29.72,10.0,WNW,15.0,21.9,N/A,,Clear,300,2013-01-31 19:54:00
2:14 PM,-0.4,-11.2,60,29.72,10.0,NW,12.7,25.3,N/A,,Clear,310,2013-01-31 20:14:00
2:33 PM,-0.4,-11.2,60,29.73,10.0,NW,15.0,24.2,N/A,,Clear,310,2013-01-31 20:33:00
2:54 PM,1.4,-11.2,56,29.74,10.0,WNW,12.7,23.0,N/A,,Clear,300,2013-01-31 20:54:00
3:14 PM,-0.4,-11.2,60,29.74,7.0,NW,15.0,21.9,N/A,,Clear,320,2013-01-31 21:14:00
3:33 PM,-0.4,-11.2,60,29.75,5.0,NW,15.0,25.3,N/A,,Haze,310,2013-01-31 21:33:00
3:54 PM,-0.4,-11.2,60,29.76,10.0,NW,18.4,25.3,N/A,,Scattered Clouds,310,2013-01-31 21:54:00
4:14 PM,-0.4,-11.2,60,29.77,10.0,NW,12.7,25.3,N/A,,Clear,310,2013-01-31 22:14:00
4:33 PM,-2.2,-11.2,66,29.77,10.0,NW,16.1,23.0,N/A,,Clear,310,2013-01-31 22:33:00
4:54 PM,-2.2,-11.2,66,29.78,10.0,WNW,13.8,23.0,N/A,,Scattered Clouds,300,2013-01-31 22:54:00
5:13 PM,-2.2,-11.2,66,29.79,10.0,WNW,15.0,23.0,N/A,,Scattered Clouds,300,2013-01-31 23:13:00
5:33 PM,-2.2,-11.2,66,29.79,10.0,WNW,19.6,27.6,N/A,,Scattered Clouds,300,2013-01-31 23:33:00
5:54 PM,-2.2,-11.2,66,29.80,10.0,NW,12.7,25.3,N/A,,Scattered Clouds,310,2013-01-31 23:54:00
6:13 PM,-2.2,-11.2,66,29.81,10.0,NW,17.3,28.8,N/A,,Scattered Clouds,310,2013-02-01 00:13:00
6:34 PM,-4.0,-11.2,71,29.82,10.0,NW,15.0,28.8,N/A,,Scattered Clouds,310,2013-02-01 00:34:00
6:53 PM,-4.0,-11.2,71,29.83,10.0,NW,18.4,24.2,N/A,,Mostly Cloudy,310,2013-02-01 00:53:00
7:14 PM,-4.0,-11.2,71,29.83,10.0,NW,18.4,26.5,N/A,,Scattered Clouds,310,2013-02-01 01:14:00
7:34 PM,-4.0,-11.2,71,29.84,10.0,NW,13.8,32.2,N/A,,Scattered Clouds,310,2013-02-01 01:34:00
7:54 PM,-5.8,-11.2,77,29.84,10.0,NW,17.3,25.3,N/A,,Scattered Clouds,310,2013-02-01 01:54:00
8:13 PM,-5.8,-13.0,71,29.84,10.0,NW,17.3,29.9,N/A,,Scattered Clouds,320,2013-02-01 02:13:00
8:33 PM,-5.8,-13.0,71,29.84,10.0,NW,17.3,27.6,N/A,,Scattered Clouds,310,2013-02-01 02:33:00
9:14 PM,-5.8,-14.8,65,29.85,10.0,NW,16.1,31.1,N/A,,Clear,310,2013-02-01 03:14:00
9:34 PM,-5.8,-14.8,65,29.85,10.0,NW,16.1,25.3,N/A,,Clear,310,2013-02-01 03:34:00
10:13 PM,-5.8,-14.8,65,29.87,10.0,NW,16.1,25.3,N/A,,Scattered Clouds,310,2013-02-01 04:13:00
10:33 PM,-7.6,-14.8,71,29.87,10.0,NW,10.4,24.2,N/A,,Scattered Clouds,320,2013-02-01 04:33:00
10:54 PM,-7.6,-14.8,71,29.88,10.0,WNW,8.1,-,N/A,,Scattered Clouds,290,2013-02-01 04:54:00
11:14 PM,-7.6,-14.8,71,29.89,10.0,WNW,10.4,16.1,N/A,,Clear,300,2013-02-01 05:14:00
11:34 PM,-9.4,-16.6,71,29.89,10.0,WNW,10.4,18.4,N/A,,Clear,300,2013-02-01 05:34:00
11:53 PM,-9.4,-16.6,71,29.89,10.0,WNW,6.9,-,N/A,,Clear,300,2013-02-01 05:53:00